Weather reports worldwide

Advertisment
Puerto de san Isidro, Spain (8057): temperature & dewpoint: 08.10.2019 14:00:00 - 14.10.2019 14:00:00 (CEST)Puerto de san Isidro, Spain (8057): wind speed & gusts: 08.10.2019 14:00:00 - 14.10.2019 14:00:00 (CEST)Puerto de san Isidro, Spain (8057): wind direction: 08.10.2019 14:00:00 - 14.10.2019 14:00:00 (CEST)Puerto de san Isidro, Spain (8057): visibility: 08.10.2019 14:00:00 - 14.10.2019 14:00:00 (CEST)Puerto de san Isidro, Spain (8057): sunshine duration: 08.10.2019 14:00:00 - 14.10.2019 14:00:00 (CEST)Puerto de san Isidro, Spain (8057): precipitation: 08.10.2019 14:00:00 - 14.10.2019 14:00:00 (CEST)
Date & Time tt [°C] td [°C] ff [km/h] ff [kn] fx [km/h] fx [kn] dd vv [km] sd [min] rr [mm]
14.10.2019 14:00:00 - - - - - - - - - -
14.10.2019 13:00:00 7,5 3,0 10 6 42 23 SSE 20 47 0,0
14.10.2019 12:00:00 7,2 2,3 25 13 45 24 SSW 20 17 0,0
14.10.2019 11:00:00 6,1 2,1 16 9 42 23 SSW 20 0 2,8
14.10.2019 10:00:00 6,6 2,7 10 5 41 22 SW 7 0 4,8
14.10.2019 09:00:00 8,9 5,1 21 11 54 29 S 7 0 2,8
14.10.2019 08:00:00 9,9 5,9 18 10 74 40 S 9 0 -
14.10.2019 07:00:00 10,7 6,4 19 10 65 35 S 9 0 2,2
14.10.2019 06:00:00 11,2 6,7 19 10 54 29 S 9 0 0,4
14.10.2019 05:00:00 11,6 5,9 22 12 74 40 SSE 20 0 0,0
14.10.2019 04:00:00 11,7 5,8 24 13 67 36 S 20 0 0,0
14.10.2019 03:00:00 11,6 5,3 25 14 74 40 S 20 0 0,0
14.10.2019 02:00:00 11,2 5,3 19 10 61 33 SSE 20 0 -
14.10.2019 01:00:00 11,5 4,5 23 12 74 40 S 20 0 0,0
14.10.2019 00:00:00 11,2 4,6 25 13 59 32 SSE 20 0 0,0
13.10.2019 23:00:00 11,5 5,6 25 14 60 32 S 20 0 0,0
13.10.2019 22:00:00 11,7 5,8 19 10 65 35 S 20 0 0,0
13.10.2019 21:00:00 12,2 6,2 20 11 56 30 S 20 0 0,0
13.10.2019 20:00:00 12,3 6,5 17 9 57 31 S 20 0 -
13.10.2019 19:00:00 12,4 7,4 18 10 54 29 S 20 0 0,0
13.10.2019 18:00:00 12,1 7,1 16 9 55 30 SSE 20 0 0,0
13.10.2019 17:00:00 11,3 8,0 19 10 44 24 S 20 0 0,2
13.10.2019 16:00:00 9,8 8,3 19 10 37 20 ESE 20 0 0,6
13.10.2019 15:00:00 9,9 8,0 6 3 33 18 SSE 9 0 0,2
13.10.2019 14:00:00 9,3 7,6 7 4 29 16 SSE 7 0 -
13.10.2019 13:00:00 9,0 7,3 6 3 32 17 SSE 7 0 0,0
13.10.2019 12:00:00 8,7 7,1 11 6 26 14 ESE 20 0 0,0
13.10.2019 11:00:00 9,1 6,5 6 4 34 18 E 9 0 0,0
13.10.2019 10:00:00 8,9 6,2 9 5 43 23 SSE 20 0 0,0
13.10.2019 09:00:00 8,8 5,5 16 9 41 22 SE 20 0 0,0
13.10.2019 08:00:00 9,8 4,6 22 12 65 35 SSE 20 0 -
13.10.2019 07:00:00 10,6 3,8 19 11 74 40 SSE 20 0 0,0
13.10.2019 06:00:00 11,5 4,5 24 13 64 35 S 20 0 0,0
13.10.2019 05:00:00 11,3 5,6 23 13 62 34 S 20 0 0,0
13.10.2019 04:00:00 12,0 5,8 21 11 56 30 S 20 0 0,0
13.10.2019 03:00:00 13,0 5,9 21 11 59 32 S 20 0 0,2
13.10.2019 02:00:00 13,8 5,9 24 13 71 38 S 20 0 -
13.10.2019 01:00:00 14,7 5,8 31 17 72 39 S 20 0 0,0
13.10.2019 00:00:00 14,7 5,1 24 13 66 36 S 20 0 0,2
12.10.2019 23:00:00 15,1 6,7 22 12 61 33 S 20 0 0,0
12.10.2019 22:00:00 14,3 6,8 14 8 89 48 S 20 0 2,0
12.10.2019 21:00:00 16,7 5,3 18 10 48 26 S 20 0 0,0
12.10.2019 20:00:00 16,8 5,1 11 6 58 32 S 20 2 -
12.10.2019 19:00:00 16,5 5,8 18 10 54 29 S 20 0 0,2
12.10.2019 18:00:00 18,0 5,3 18 10 54 29 S 20 9 0,0
12.10.2019 17:00:00 17,4 5,9 20 11 45 24 S 20 28 0,0
12.10.2019 16:00:00 17,2 7,0 16 9 59 32 SSW 20 39 0,0
12.10.2019 15:00:00 16,6 6,7 22 12 57 31 SSE 20 37 0,0
12.10.2019 14:00:00 15,9 6,5 20 11 62 33 S 20 45 -
12.10.2019 13:00:00 16,8 6,1 22 12 46 25 SSE 20 59 0,0
12.10.2019 12:00:00 15,3 7,8 16 9 35 19 E 20 57 0,0
12.10.2019 11:00:00 13,2 7,6 10 6 31 17 E 20 42 0,0
12.10.2019 10:00:00 12,1 7,4 18 10 27 15 E 20 46 0,0
12.10.2019 09:00:00 12,0 6,2 16 9 49 27 SE 20 0 0,0
12.10.2019 08:00:00 12,6 5,9 16 9 40 21 S 20 0 -
12.10.2019 07:00:00 13,1 6,7 14 8 35 19 SE 20 0 0,0
12.10.2019 06:00:00 14,1 6,2 12 7 39 21 SSW 20 0 0,0
12.10.2019 05:00:00 14,5 6,4 13 7 39 21 SSW 20 0 0,0
12.10.2019 04:00:00 14,6 7,0 16 9 46 25 SW 20 0 0,0
12.10.2019 03:00:00 14,6 7,1 10 6 31 17 SSW 20 0 0,0
12.10.2019 02:00:00 15,2 7,3 9 5 25 14 SW 20 0 -
12.10.2019 01:00:00 15,9 6,5 8 5 24 13 SSW 20 0 0,0
12.10.2019 00:00:00 15,6 6,5 4 2 20 11 WSW 20 0 0,0
11.10.2019 23:00:00 14,9 5,9 5 3 14 7 SW 20 0 0,0
11.10.2019 22:00:00 14,7 5,8 4 2 17 9 SW 20 0 0,0
11.10.2019 21:00:00 15,5 5,9 6 3 22 12 WSW 20 0 0,0
11.10.2019 20:00:00 16,9 5,8 7 4 31 17 SW 20 7 -
11.10.2019 19:00:00 17,7 5,9 10 5 32 17 SSE 20 14 0,0
11.10.2019 18:00:00 18,6 4,8 13 7 32 17 SSE 20 59 0,0
11.10.2019 17:00:00 19,6 4,8 9 5 35 19 SSW 20 60 0,0
11.10.2019 16:00:00 20,1 5,0 8 5 36 19 SSW 20 60 0,0
11.10.2019 15:00:00 19,8 4,6 11 6 35 19 SSW 20 60 0,0
11.10.2019 14:00:00 19,0 4,6 9 5 30 16 SSW 20 60 -
11.10.2019 13:00:00 17,8 3,9 11 6 40 21 SE 20 60 0,0
11.10.2019 12:00:00 15,0 3,4 27 15 37 20 E 20 60 0,0
11.10.2019 11:00:00 13,9 3,6 21 11 31 17 E 20 60 0,0
11.10.2019 10:00:00 11,1 3,4 4 2 10 6 NW 20 60 0,0
11.10.2019 09:00:00 7,6 2,1 3 2 10 5 SE 20 5 0,0
11.10.2019 08:00:00 7,3 1,9 5 3 17 9 SE 20 0 -
11.10.2019 07:00:00 7,7 2,3 12 6 20 11 E 20 0 0,0
11.10.2019 06:00:00 7,3 2,3 7 4 14 7 ESE 20 0 0,0
11.10.2019 05:00:00 7,7 2,3 8 5 16 8 E 20 0 0,0
11.10.2019 04:00:00 6,9 2,5 6 4 10 6 ESE 20 0 0,0
11.10.2019 03:00:00 6,5 2,3 2 1 10 5 S 20 0 0,0
11.10.2019 02:00:00 8,2 2,9 5 3 24 13 ESE 20 0 -
11.10.2019 01:00:00 8,9 3,0 9 5 31 17 E 20 0 0,0
11.10.2019 00:00:00 11,6 3,0 24 13 37 20 E 20 0 0,0
10.10.2019 23:00:00 9,9 3,6 14 8 26 14 E 20 0 0,0
10.10.2019 22:00:00 9,8 3,8 6 4 16 9 E 20 0 0,0
10.10.2019 21:00:00 12,9 3,8 11 6 23 13 SSE 20 0 0,0
10.10.2019 20:00:00 12,5 4,5 5 3 17 9 ESE 20 11 -
10.10.2019 19:00:00 15,2 4,8 4 2 13 7 WNW 20 60 0,0
10.10.2019 18:00:00 16,4 5,0 11 6 15 8 W 20 60 0,0
10.10.2019 17:00:00 16,6 3,9 12 7 19 10 W 20 60 0,0
10.10.2019 16:00:00 15,9 3,9 16 8 21 11 WNW 20 60 0,0
10.10.2019 15:00:00 16,5 2,5 11 6 21 12 W 20 60 0,0
10.10.2019 14:00:00 - - - - - - - - - -
10.10.2019 13:00:00 - - - - - - - - - -
10.10.2019 12:00:00 12,7 -1,2 6 3 13 7 NW 20 60 0,0
10.10.2019 11:00:00 11,2 -2,0 13 7 17 9 WNW 20 60 0,0
10.10.2019 10:00:00 8,4 -1,4 9 5 14 8 W 20 60 0,0
10.10.2019 09:00:00 3,7 -2,2 13 7 16 9 WNW 20 7 0,0
10.10.2019 08:00:00 3,1 -3,3 6 3 10 5 WNW 20 0 -
10.10.2019 07:00:00 3,5 -1,0 2 1 16 9 WNW 20 0 0,0
10.10.2019 06:00:00 2,7 -1,2 12 6 19 11 WNW 20 0 0,0
10.10.2019 05:00:00 1,2 -2,0 5 3 11 6 WNW 20 0 0,0
10.10.2019 04:00:00 0,9 -1,4 5 3 9 5 W 20 0 0,0
10.10.2019 03:00:00 1,8 0,2 7 4 16 8 WNW 20 0 0,0
10.10.2019 02:00:00 3,8 2,7 13 7 17 9 W 13 0 -
10.10.2019 01:00:00 4,5 3,2 13 7 23 12 W 17 0 0,0
10.10.2019 00:00:00 3,8 2,7 14 8 20 11 W 16 0 0,0
09.10.2019 23:00:00 4,6 3,0 18 10 24 13 W 20 0 0,0
09.10.2019 22:00:00 4,8 3,2 6 3 21 12 W 20 0 0,0
09.10.2019 21:00:00 5,3 3,4 15 8 26 14 WNW 20 0 0,0
09.10.2019 20:00:00 5,0 2,5 14 8 24 13 WNW 20 11 -
09.10.2019 19:00:00 7,1 3,4 17 9 30 16 W 20 40 0,0
09.10.2019 18:00:00 9,1 3,8 21 12 33 18 W 20 59 0,0
09.10.2019 17:00:00 9,8 1,9 25 14 37 20 W 20 60 0,0
09.10.2019 16:00:00 10,2 2,5 24 13 34 18 W 20 60 0,0
09.10.2019 15:00:00 9,5 2,7 19 10 31 17 W 20 60 0,0
09.10.2019 14:00:00 8,4 2,7 20 11 31 17 W 20 60 -
09.10.2019 13:00:00 7,4 3,2 21 11 32 17 W 20 60 0,0
09.10.2019 12:00:00 6,9 3,9 22 12 34 18 W 20 60 0,0
09.10.2019 11:00:00 6,5 3,6 20 11 30 16 W 20 60 0,0
09.10.2019 10:00:00 5,4 4,3 12 6 28 15 WNW 20 47 0,0
09.10.2019 09:00:00 4,3 3,4 20 11 27 15 W 20 10 0,0
09.10.2019 08:00:00 3,9 3,0 18 10 26 14 WNW 20 0 -
09.10.2019 07:00:00 4,7 3,8 16 9 32 17 W 20 0 0,0
09.10.2019 06:00:00 5,3 4,5 18 10 26 14 W 0,2 0 0,0
09.10.2019 05:00:00 5,6 4,6 10 6 21 11 WNW 4,0 0 0,0
09.10.2019 04:00:00 5,9 5,0 15 8 32 17 WNW 0,7 0 0,0
09.10.2019 03:00:00 6,5 5,6 18 10 26 14 W 0,8 0 0,0
09.10.2019 02:00:00 5,8 5,0 5 3 9 5 SSE 1,8 0 -
09.10.2019 01:00:00 6,7 5,8 5 3 23 13 W - 0 0,0
09.10.2019 00:00:00 7,6 6,7 16 9 28 15 WNW 0,5 0 0,0
08.10.2019 23:00:00 7,8 6,8 16 9 32 17 WNW 0,7 0 0,0
08.10.2019 22:00:00 8,2 7,3 21 12 35 19 WNW 0,4 0 0,0
08.10.2019 21:00:00 8,8 7,8 24 13 32 17 W 0,3 0 0,0
08.10.2019 20:00:00 9,5 8,5 22 12 35 19 W 1,6 0 -
08.10.2019 19:00:00 10,6 9,7 22 12 30 16 W 0,2 0 0,0
08.10.2019 18:00:00 11,2 10,3 16 8 30 16 W 0,3 0 0,0
08.10.2019 17:00:00 11,6 10,5 22 12 34 18 W 0,4 3 0,0
08.10.2019 16:00:00 15,3 11,7 24 13 38 21 W 20 60 0,0
08.10.2019 15:00:00 17,9 9,8 23 12 36 19 W 20 60 0,0
08.10.2019 14:00:00 18,4 9,2 9 5 25 13 WNW 20 60 -

tt = temperature
td = dewpoint
ff = wind speed
fx = gusts
dd = wind direction
vv = visibility
sd = sunshine duration
rr = precipitation

Next stations